This is the latest recevied weather packets stored in our database for station/object WB5LFS-1. If no packets are shown the sender has not sent any weather packets the latest 1 day(s).
| Time | Temp. | Humidity | Pressure | Rain* | Wind** | Luminosity | Snow |
|---|---|---|---|---|---|---|---|
| 1778086607 | 18.89° C | 82% | 1011.6 hPa | 0 mm | - | - | - |
| 1778084807 | 18.33° C | 87% | 1012.1 hPa | 0.76 mm | - | - | - |
| 1778083907 | 17.78° C | 89% | 1012.3 hPa | 0.76 mm | - | - | - |
| 1778083007 | 17.78° C | 86% | 1012.5 hPa | 0.76 mm | - | - | - |
| 1778082107 | 17.78° C | 86% | 1012.9 hPa | 0.51 mm | - | - | - |
| 1778081207 | 18.33° C | 85% | 1013.3 hPa | 0.25 mm | - | - | - |
| 1778079407 | 18.89° C | 80% | 1013.4 hPa | 0.25 mm | - | - | - |
| 1778078507 | 20.56° C | 73% | 1013.6 hPa | 0 mm | - | - | - |
| 1778077607 | 20.56° C | 71% | 1012.8 hPa | 0 mm | - | - | - |
| 1778076707 | 19.44° C | 73% | 1012.7 hPa | 0 mm | - | - | - |
| 1778075807 | 18.89° C | 77% | 1013 hPa | 0 mm | - | - | - |
| 1778074907 | 18.89° C | 78% | 1012.7 hPa | 0 mm | - | - | - |
| 1778074007 | 18.89° C | 76% | 1012.5 hPa | 0 mm | - | - | - |
| 1778073107 | 19.44° C | 74% | 1012.7 hPa | 0 mm | - | - | - |
| 1778072207 | 19.44° C | 74% | 1012.8 hPa | 0 mm | - | - | - |
| 1778071307 | 19.44° C | 76% | 1012.7 hPa | 0 mm | - | - | - |
| 1778070407 | 18.89° C | 75% | 1012.6 hPa | 0 mm | - | - | - |
| 1778069507 | 18.33° C | 77% | 1013 hPa | 0 mm | - | - | - |
| 1778066807 | 17.78° C | 77% | 1013.1 hPa | 0 mm | - | - | - |
| 1778065907 | 17.78° C | 76% | 1012.9 hPa | 0 mm | - | - | - |
| 1778065007 | 17.78° C | 76% | 1013.2 hPa | 0 mm | - | - | - |
| 1778064107 | 17.78° C | 76% | 1012.9 hPa | 0 mm | - | - | - |
| 1778063207 | 17.22° C | 76% | 1012.7 hPa | 0 mm | - | - | - |
| 1778062307 | 17.22° C | 76% | 1012.8 hPa | 0 mm | - | - | - |
| 1778061407 | 17.22° C | 76% | 1012.5 hPa | 0 mm | - | - | - |
* Rain latest hour (hover to see other rain measurements)
** Current wind speed in m/s (hover to see current wind gust speed)